^^
Meteo Knjazevac Station Historical Data
Daily Summary for August 12, 2021 Units:  Both    English   Metric
Daily Weekly Monthly Yearly Custom
  High: Low: Average:
Temperature: 47.5 °F /  8.6 °C 46 °F /  7.8 °C 46.7 °F /  8.2 °C
Dew Point: 47.2 °F /  8.4 °C 45.8 °F /  7.7 °C 46.5 °F /  8.1 °C
Humidity: 99% 99% 99%
Wind Speed: 5mph /  8km/h - 1.3mph /  2.1km/h
Wind Gust: 9mph /  14.5km/h - -
Wind- - NNW
Pressure: 30.08 in /  1018.5 hPa 30.04 in /  1017.2 hPa -
Precipitation: 0.05 in /  1.27 mm    
Historical Graphs
 
 
Tabular Data for August 12, 2021
Time Temperature Dew Point Pressure Wind Wind Speed Wind Gust Humidity Rainfall Rate (Hourly) solar Conditions
00:00 46 °F /  7.8 °C 45.8 °F /  7.7 °C 30.08in /  1018.5hPa North 1mph /  1.6km/h 3mph /  4.8km/h 99% 0.00in /  0mm 0 W/m2
00:10 46 °F /  7.8 °C 45.8 °F /  7.7 °C 30.07in /  1018.2hPa Calm   3mph /  4.8km/h 99% 0.00in /  0mm 0 W/m2
00:20 46.2 °F /  7.9 °C 45.9 °F /  7.7 °C 30.07in /  1018.2hPa Calm   2mph /  3.2km/h 99% 0.00in /  0mm 0 W/m2
00:30 46.2 °F /  7.9 °C 46 °F /  7.8 °C 30.07in /  1018.2hPa Calm   1mph /  1.6km/h 99% 0.00in /  0mm 0 W/m2
00:40 46.2 °F /  7.9 °C 46 °F /  7.8 °C 30.07in /  1018.2hPa Calm   1mph /  1.6km/h 99% 0.00in /  0mm 0 W/m2
00:50 46.2 °F /  7.9 °C 46 °F /  7.8 °C 30.07in /  1018.2hPa Calm   1mph /  1.6km/h 99% 0.00in /  0mm 0 W/m2
01:00 46.2 °F /  7.9 °C 46 °F /  7.8 °C 30.06in /  1017.8hPa NW 1mph /  1.6km/h 2mph /  3.2km/h 99% 0.00in /  0mm 0 W/m2
01:10 46.2 °F /  7.9 °C 46 °F /  7.8 °C 30.07in /  1018.2hPa Calm   2mph /  3.2km/h 99% 0.00in /  0mm 0 W/m2
01:20 46.2 °F /  7.9 °C 46 °F /  7.8 °C 30.06in /  1017.8hPa Calm   1mph /  1.6km/h 99% 0.01in /  0.25mm 0 W/m2
01:30 46.4 °F /  8 °C 46.1 °F /  7.8 °C 30.06in /  1017.8hPa Calm   2mph /  3.2km/h 99% 0.00in /  0mm 0 W/m2
01:40 46.4 °F /  8 °C 46.1 °F /  7.8 °C 30.06in /  1017.8hPa Calm   5mph /  8km/h 99% 0.00in /  0mm 0 W/m2
01:50 46.6 °F /  8.1 °C 46.3 °F /  7.9 °C 30.06in /  1017.8hPa NNW 2mph /  3.2km/h 7mph /  11.3km/h 99% 0.00in /  0mm 0 W/m2
02:00 46.8 °F /  8.2 °C 46.5 °F /  8.1 °C 30.06in /  1017.8hPa North 2mph /  3.2km/h 7mph /  11.3km/h 99% 0.01in /  0.25mm 0 W/m2
02:10 46.9 °F /  8.3 °C 46.7 °F /  8.2 °C 30.06in /  1017.8hPa North 1mph /  1.6km/h 6mph /  9.7km/h 99% 0.00in /  0mm 0 W/m2
02:20 46.9 °F /  8.3 °C 46.7 °F /  8.2 °C 30.05in /  1017.5hPa North 3mph /  4.8km/h 8mph /  12.9km/h 99% 0.02in /  0.51mm 0 W/m2
02:30 47.1 °F /  8.4 °C 46.9 °F /  8.3 °C 30.05in /  1017.5hPa Calm   7mph /  11.3km/h 99% 0.00in /  0mm 0 W/m2
02:40 47.1 °F /  8.4 °C 46.9 °F /  8.3 °C 30.05in /  1017.5hPa North 2mph /  3.2km/h 9mph /  14.5km/h 99% 0.00in /  0mm 0 W/m2
02:50 47.1 °F /  8.4 °C 46.9 °F /  8.3 °C 30.05in /  1017.5hPa North 2mph /  3.2km/h 6mph /  9.7km/h 99% 0.00in /  0mm 0 W/m2
03:00 47.3 °F /  8.5 °C 47 °F /  8.3 °C 30.04in /  1017.2hPa North 5mph /  8km/h 6mph /  9.7km/h 99% 0.00in /  0mm 0 W/m2
03:10 47.3 °F /  8.5 °C 47 °F /  8.3 °C 30.05in /  1017.5hPa North 3mph /  4.8km/h 8mph /  12.9km/h 99% 0.00in /  0mm 0 W/m2
03:20 47.3 °F /  8.5 °C 47 °F /  8.3 °C 30.04in /  1017.2hPa North 2mph /  3.2km/h 8mph /  12.9km/h 99% 0.00in /  0mm 0 W/m2
03:30 47.3 °F /  8.5 °C 47 °F /  8.3 °C 30.04in /  1017.2hPa North 3mph /  4.8km/h 8mph /  12.9km/h 99% 0.00in /  0mm 0 W/m2
03:40 47.3 °F /  8.5 °C 47 °F /  8.3 °C 30.04in /  1017.2hPa NNW 1mph /  1.6km/h 7mph /  11.3km/h 99% 0.00in /  0mm 0 W/m2
03:50 47.5 °F /  8.6 °C 47.2 °F /  8.4 °C 30.04in /  1017.2hPa North 3mph /  4.8km/h 7mph /  11.3km/h 99% 0.00in /  0mm 0 W/m2
Knjazevac, Serbia
Compliments of Weather Underground - 2 mb